Aeroporto :
LOGIN :

Iscrizione | Disclaimer

   EN    FR    IT 

 










Sommario :    VFR   VFR Marginale   IFR   IFR Intensivo   IFR Molto Intensivo
Visibilità : 
Base nubi : 
>= 8 km
>= 3000ft
5 / 8 km
1000 / 3000 ft
1500m / 5 km
500 / 1000 ft
800 / 1500m
200 / 500 ft
< 800m
< 200 ft
Simboli :   Temporali  Nebbia  Neve Forte  Precipitazioni Forti  Vento > 20 kt
SIGMETs :   Varie  Temporali  Ghiacco  Turbolenza  Onda orograficha  Ceneri Vulcaniche






- Altitudine del aeroporto : 1079 ft


ETIK - Illesheim Air Base

ULTIMO METAR :
  • 062356Z AUTO 00000KT 9999 CLR 03/01 A3034 RMK AO2 SLP278 T00330013 10140 20029 52014 $

METARs OBSOLETI :
  • 062256Z AUTO 00000KT 9999 CLR 04/01 A3032 RMK AO2 SLP271 T00430012 402081024 $
  • 062156Z AUTO 25004KT 9999 CLR 05/02 A3030 RMK AO2 SLP264 T00500017 $

TAF TAF ETIK
Valido dal 06 a 22 ore il 08 a 04 ore UTC


062200Z 0622/0804 VRB06KT 9999 SKC QNH3025INS TX21/0715Z TNM00/0704Z



MetMap, La meteo Aeronautica in un colpo d'occhio ! - Copyright ORBIFLY Dicembre 2007 - Disclaimer

ORBIFLY MET'MAP TEAM :

Programmazione e sviluppo : Alexandra Zaïnal
Concezione : Baudouin d'Aumeries
Aiuto per la programmazione : Marc-Olivier Méhu
Supporto tecnico e logistico : Manuel Goepfert
Aiuto per la traduzione : Arnaldo La Scala

Contatto : metmap@orbifly.com




FONTI E CREDITI :

   NOAA